Winston Salem, NC (27157)

1:44 PM EST on January 27, 2015 (GMT -0500)
Sherwood Forest | Change Station
CLOSE
Current Station
Personal Weather Station
Location: Winston-Salem, NC
Elevation: 794 ft
Nearby Weather Stations

Elev 794 ft 36.09 °N, 80.33 °W | Updated 1 second ago

Clear
Clear
43.0 °F
Feels Like 43 °F
N
1.3
Wind Variable Wind from NW
Gusts 2.5 mph

Today
High -- | Low -- °F
--% Chance of Precip.
Yesterday
High -- | Low -- °F
Precip. -- in
7:25 AM 5:42 PM
First Quarter, 56% visible
Pressure 29.83 in
Visibility 10.0 miles
Clouds Clear
Windchill 43 °F
Dew Point 7 °F
Humidity 22%
Rainfall 0.00 in
Snow Depth Not available.
UV 2.0 out of 12
Pollen 1.00 out of 12
Air Quality Not available.
Flu Activity Not available.
METAR KINT 271754Z 31008KT 10SM CLR 04/M13 A2982 RMK AO2 SLP101 T00441128 10050 21022 58008

More Conditions Fewer Conditions

Pressure 29.83 in
Visibility 10.0 miles
Clouds Clear
Windchill 43 °F
Dew Point 7 °F
Humidity 22%
Rainfall 0.00 in
Snow Depth Not available.
UV 2.0 out of 12
Pollen 1.00 out of 12
Air Quality Not available.
Flu Activity Not available.
METAR KINT 271754Z 31008KT 10SM CLR 04/M13 A2982 RMK AO2 SLP101 T00441128 10050 21022 58008

More Conditions Fewer Conditions

10-Day Weather Forecast

Almanac

Astronomy

Jan. 27, 2015 Rise Set
Actual Time
Civil Twilight
Nautical Twilight
Astronomical Twilight
Moon
Length of Visible Light
Length of Day
Tomorrow will be .
, % of the Moon is Illuminated

Today's Extremes

State Highs State Lows

Community

WunderPhotos

Upload Photos

1,790,776 photos uploaded!

WunderBlogs® & News

Nearby

Air Quality

  Air Quality AQ Index Pollutant
Not available.

Snow Depth

Station Depth Elevation

Earthquake Activity

City Distance Mag. Time & Date
Minimum magnitude displayed is 2.5.

Coastal Water Temperatures

Place Temperature

Nearby Weather Stations